Time;durP1;ratioP1;P1;durP2;ratioP2;P2;SDS_P1;SDS_P2;PMS_P1;PMS_P2;Temp;Humidity;BMP_temperature;BMP_pressure;BME280_temperature;BME280_humidity;BME280_pressure;Samples;Min_cycle;Max_cycle;Signal;HPM_P1;HPM_P2
2022/06/03 00:02:37;;;;;;;0.32;0.22;;;;;;;;;;5011044;28;20089;-58
2022/06/03 00:05:14;;;;;;;0.08;0.08;;;;;;;;;;5015306;28;20050;-59
2022/06/03 00:07:48;;;;;;;0.00;0.00;;;;;;;;;;5029887;28;20089;-59
2022/06/03 00:10:30;;;;;;;0.00;0.00;;;;;;;;;;5029217;28;20089;-59
2022/06/03 00:13:15;;;;;;;0.00;0.00;;;;;;;;;;5015295;28;20081;-59
2022/06/03 00:15:51;;;;;;;0.00;0.00;;;;;;;;;;5010313;28;20082;-59
2022/06/03 00:18:32;;;;;;;0.00;0.00;;;;;;;;;;5010526;28;20054;-58
2022/06/03 00:20:58;;;;;;;0.00;0.00;;;;;;;;;;5009185;28;20142;-59
2022/06/03 00:23:37;;;;;;;0.00;0.00;;;;;;;;;;5018611;28;20054;-58
2022/06/03 00:26:13;;;;;;;1.95;0.15;;;;;;;;;;5029354;28;20108;-58
2022/06/03 00:28:40;;;;;;;0.00;0.00;;;;;;;;;;5019241;28;20074;-58
2022/06/03 00:31:13;;;;;;;0.00;0.00;;;;;;;;;;5010289;28;20125;-59
2022/06/03 00:33:58;;;;;;;0.00;0.00;;;;;;;;;;5017502;28;20062;-58
2022/06/03 00:36:24;;;;;;;0.00;0.00;;;;;;;;;;5009779;28;20962;-59
2022/06/03 00:39:00;;;;;;;0.00;0.00;;;;;;;;;;5025085;28;20124;-58
2022/06/03 00:41:31;;;;;;;0.10;0.10;;;;;;;;;;5029064;28;20069;-58
2022/06/03 00:44:07;;;;;;;0.00;0.00;;;;;;;;;;5014110;28;20126;-58
2022/06/03 00:46:34;;;;;;;0.10;0.10;;;;;;;;;;5025984;28;20057;-59
2022/06/03 00:49:14;;;;;;;0.00;0.00;;;;;;;;;;5029634;28;20097;-58
2022/06/03 00:51:49;;;;;;;0.00;0.00;;;;;;;;;;5029092;28;20172;-58
2022/06/03 00:54:34;;;;;;;0.00;0.00;;;;;;;;;;5019446;28;20108;-58
2022/06/03 00:57:13;;;;;;;0.00;0.00;;;;;;;;;;5028897;28;20546;-58
2022/06/03 01:00:02;;;;;;;0.00;0.00;;;;;;;;;;5029491;28;20097;-58
2022/06/03 01:02:47;;;;;;;0.00;0.00;;;;;;;;;;5020423;28;20086;-58
2022/06/03 01:05:26;;;;;;;0.00;0.00;;;;;;;;;;5012859;28;20049;-59
2022/06/03 01:07:52;;;;;;;;;;;;;;;;;;5029221;28;20089;-58
2022/06/03 01:10:38;;;;;;;0.00;0.00;;;;;;;;;;5029020;28;46040;-58
2022/06/03 01:13:28;;;;;;;0.00;0.00;;;;;;;;;;5029307;28;20073;-58
2022/06/03 01:15:59;;;;;;;0.00;0.00;;;;;;;;;;5017698;28;20074;-59
2022/06/03 01:18:44;;;;;;;0.00;0.00;;;;;;;;;;5010102;28;20065;-58
2022/06/03 01:21:49;;;;;;;0.30;0.22;;;;;;;;;;5009322;28;20596;-58
2022/06/03 01:24:37;;;;;;;0.00;0.00;;;;;;;;;;5018614;28;20085;-58
2022/06/03 01:27:06;;;;;;;0.00;0.00;;;;;;;;;;5026723;28;20148;-59
2022/06/03 01:29:51;;;;;;;0.00;0.00;;;;;;;;;;5015439;28;20113;-59
2022/06/03 01:32:30;;;;;;;0.00;0.00;;;;;;;;;;5017884;28;20046;-58
2022/06/03 01:35:00;;;;;;;0.00;0.00;;;;;;;;;;5016968;28;20061;-58
2022/06/03 01:37:36;;;;;;;0.00;0.00;;;;;;;;;;5015743;28;20130;-58
2022/06/03 01:40:21;;;;;;;0.00;0.00;;;;;;;;;;5028694;28;20077;-58
2022/06/03 01:42:48;;;;;;;0.00;0.00;;;;;;;;;;5023015;28;20126;-58
2022/06/03 01:45:29;;;;;;;0.00;0.00;;;;;;;;;;5019471;28;20085;-58
2022/06/03 01:47:59;;;;;;;0.00;0.00;;;;;;;;;;5028411;28;20104;-58
2022/06/03 01:50:25;;;;;;;7.22;0.55;;;;;;;;;;5028772;28;20136;-59
2022/06/03 01:53:01;;;;;;;0.00;0.00;;;;;;;;;;5020115;28;20082;-59
2022/06/03 01:55:42;;;;;;;0.10;0.10;;;;;;;;;;5015091;28;20077;-58
2022/06/03 01:58:32;;;;;;;0.00;0.00;;;;;;;;;;5028853;28;20097;-59
2022/06/03 02:01:07;;;;;;;0.00;0.00;;;;;;;;;;5009509;28;20473;-58
2022/06/03 02:03:52;;;;;;;0.00;0.00;;;;;;;;;;5012761;28;20383;-58
2022/06/03 02:06:19;;;;;;;0.00;0.00;;;;;;;;;;5026795;28;20093;-58
2022/06/03 02:08:45;;;;;;;0.00;0.00;;;;;;;;;;5028446;28;20077;-58
2022/06/03 02:11:11;;;;;;;0.00;0.00;;;;;;;;;;5017252;28;20170;-58
2022/06/03 02:13:38;;;;;;;0.00;0.00;;;;;;;;;;5027653;28;20116;-58
2022/06/03 02:16:18;;;;;;;0.10;0.05;;;;;;;;;;5014832;28;20124;-59
2022/06/03 02:18:46;;;;;;;0.00;0.00;;;;;;;;;;5009030;28;20141;-58
2022/06/03 02:21:31;;;;;;;0.00;0.00;;;;;;;;;;5007507;28;20111;-59
2022/06/03 02:24:10;;;;;;;0.00;0.00;;;;;;;;;;5023191;28;20531;-58
2022/06/03 02:26:55;;;;;;;0.00;0.00;;;;;;;;;;5025584;28;20556;-58
2022/06/03 02:32:47;;;;;;;0.00;0.00;;;;;;;;;;5023247;28;20058;-58
2022/06/03 02:35:19;;;;;;;0.00;0.00;;;;;;;;;;5007148;28;20174;-59
2022/06/03 02:37:52;;;;;;;0.00;0.00;;;;;;;;;;5008412;28;20113;-58
2022/06/03 02:40:31;;;;;;;0.30;0.20;;;;;;;;;;5025408;28;20441;-58
2022/06/03 02:43:03;;;;;;;0.00;0.00;;;;;;;;;;5009118;28;20532;-58
2022/06/03 02:46:03;;;;;;;0.70;0.70;;;;;;;;;;5022585;28;20050;-59
2022/06/03 02:48:30;;;;;;;0.00;0.00;;;;;;;;;;5027532;28;20141;-58
2022/06/03 02:51:15;;;;;;;0.00;0.00;;;;;;;;;;5026521;28;20073;-59
2022/06/03 02:53:50;;;;;;;0.00;0.00;;;;;;;;;;5007978;28;20116;-59
2022/06/03 02:56:47;;;;;;;0.00;0.00;;;;;;;;;;5019364;28;20058;-59
2022/06/03 02:59:13;;;;;;;0.10;0.10;;;;;;;;;;5027195;28;20586;-59
2022/06/03 03:01:49;;;;;;;0.10;0.10;;;;;;;;;;5025607;28;20085;-59
2022/06/03 03:04:21;;;;;;;0.00;0.00;;;;;;;;;;5011725;28;20472;-58
2022/06/03 03:06:53;;;;;;;0.00;0.00;;;;;;;;;;5025461;28;20085;-58
2022/06/03 03:09:28;;;;;;;0.20;0.20;;;;;;;;;;5030477;28;20050;-58
2022/06/03 03:12:16;;;;;;;0.00;0.00;;;;;;;;;;5031433;28;20063;-58
2022/06/03 03:14:58;;;;;;;0.00;0.00;;;;;;;;;;5013604;28;20054;-58
2022/06/03 03:17:34;;;;;;;0.00;0.00;;;;;;;;;;5020297;28;20065;-58
2022/06/03 03:20:09;;;;;;;0.00;0.00;;;;;;;;;;5010206;28;20856;-58
2022/06/03 03:22:55;;;;;;;0.00;0.00;;;;;;;;;;5011776;28;20061;-58
2022/06/03 03:25:31;;;;;;;0.00;0.00;;;;;;;;;;5017916;28;20053;-58
2022/06/03 03:28:03;;;;;;;0.00;0.00;;;;;;;;;;5026499;28;20050;-58
2022/06/03 03:30:36;;;;;;;0.00;0.00;;;;;;;;;;5031333;28;20054;-58
2022/06/03 03:33:02;;;;;;;0.00;0.00;;;;;;;;;;5017127;28;20057;-58
2022/06/03 03:35:52;;;;;;;0.00;0.00;;;;;;;;;;5025812;28;20956;-58
2022/06/03 03:38:30;;;;;;;0.00;0.00;;;;;;;;;;5011634;28;20477;-58
2022/06/03 03:40:59;;;;;;;0.00;0.00;;;;;;;;;;5010777;28;20510;-58
2022/06/03 03:43:31;;;;;;;0.00;0.00;;;;;;;;;;5011083;28;20054;-58
2022/06/03 03:46:16;;;;;;;0.00;0.00;;;;;;;;;;5011178;28;20050;-58
2022/06/03 03:48:46;;;;;;;0.00;0.00;;;;;;;;;;5025326;28;20060;-59
2022/06/03 03:51:23;;;;;;;0.00;0.00;;;;;;;;;;5020023;28;20572;-58
2022/06/03 03:53:53;;;;;;;1.35;0.22;;;;;;;;;;5027148;28;20101;-58
2022/06/03 03:56:28;;;;;;;0.03;0.03;;;;;;;;;;5018864;28;20053;-58
2022/06/03 03:58:55;;;;;;;0.00;0.00;;;;;;;;;;5029789;28;20853;-58
2022/06/03 04:01:44;;;;;;;0.00;0.00;;;;;;;;;;5029815;28;20097;-58
2022/06/03 04:04:20;;;;;;;8.15;4.65;;;;;;;;;;5020006;28;20054;-58
2022/06/03 04:06:53;;;;;;;0.00;0.00;;;;;;;;;;5023911;28;20578;-58
2022/06/03 04:09:27;;;;;;;0.00;0.00;;;;;;;;;;5026078;28;20076;-58
2022/06/03 04:11:54;;;;;;;0.15;0.05;;;;;;;;;;5028112;28;20129;-58
2022/06/03 04:14:29;;;;;;;0.00;0.00;;;;;;;;;;5029091;28;20034;-58
2022/06/03 04:17:14;;;;;;;0.00;0.00;;;;;;;;;;5028987;28;20575;-58
2022/06/03 04:19:55;;;;;;;0.00;0.00;;;;;;;;;;5029225;28;20054;-58
2022/06/03 04:22:22;;;;;;;0.00;0.00;;;;;;;;;;5011711;28;20113;-58
2022/06/03 04:24:48;;;;;;;0.00;0.00;;;;;;;;;;5022825;28;20054;-58
2022/06/03 04:27:15;;;;;;;0.00;0.00;;;;;;;;;;5013051;28;20477;-58
2022/06/03 04:29:44;;;;;;;0.05;0.03;;;;;;;;;;5013793;28;20500;-58
2022/06/03 04:32:29;;;;;;;0.00;0.00;;;;;;;;;;5020056;28;20082;-58
2022/06/03 04:35:14;;;;;;;0.00;0.00;;;;;;;;;;5025468;28;20116;-58
2022/06/03 04:37:59;;;;;;;0.00;0.00;;;;;;;;;;5027987;28;20054;-59
2022/06/03 04:40:38;;;;;;;0.35;0.35;;;;;;;;;;5029174;28;20555;-59
2022/06/03 04:43:23;;;;;;;0.00;0.00;;;;;;;;;;5023381;28;20078;-58
2022/06/03 04:46:02;;;;;;;0.00;0.00;;;;;;;;;;5016576;28;20935;-58
2022/06/03 04:48:47;;;;;;;0.10;0.10;;;;;;;;;;5029753;28;20546;-59
2022/06/03 04:51:33;;;;;;;0.00;0.00;;;;;;;;;;5009981;28;20055;-58
2022/06/03 04:53:59;;;;;;;0.28;0.28;;;;;;;;;;5027349;28;20054;-59
2022/06/03 04:56:44;;;;;;;0.00;0.00;;;;;;;;;;5028030;28;20121;-58
2022/06/03 04:59:31;;;;;;;0.00;0.00;;;;;;;;;;5029800;28;20912;-59
2022/06/03 05:02:14;;;;;;;0.00;0.00;;;;;;;;;;5010875;28;20094;-59
2022/06/03 05:04:49;;;;;;;0.00;0.00;;;;;;;;;;5018457;28;20527;-59
2022/06/03 05:07:34;;;;;;;0.00;0.00;;;;;;;;;;5024915;28;20088;-59
2022/06/03 05:10:27;;;;;;;0.00;0.00;;;;;;;;;;5028365;28;20054;-59
2022/06/03 05:13:12;;;;;;;0.10;0.10;;;;;;;;;;5023274;28;20074;-57
2022/06/03 05:15:51;;;;;;;0.00;0.00;;;;;;;;;;5023066;28;20100;-58
2022/06/03 05:18:18;;;;;;;0.00;0.00;;;;;;;;;;5025872;28;20058;-58
2022/06/03 05:20:58;;;;;;;0.00;0.00;;;;;;;;;;5020235;28;20054;-58
2022/06/03 05:23:43;;;;;;;0.00;0.00;;;;;;;;;;5009786;28;20058;-58
2022/06/03 05:26:15;;;;;;;0.00;0.00;;;;;;;;;;5015285;28;20078;-58
2022/06/03 05:29:05;;;;;;;0.00;0.00;;;;;;;;;;5021280;28;20513;-58
2022/06/03 05:31:50;;;;;;;0.00;0.00;;;;;;;;;;5010437;28;20054;-58
2022/06/03 05:34:29;;;;;;;0.00;0.00;;;;;;;;;;5012459;28;20058;-58
2022/06/03 05:37:14;;;;;;;0.00;0.00;;;;;;;;;;5009057;28;20050;-58
2022/06/03 05:39:53;;;;;;;0.00;0.00;;;;;;;;;;5009639;28;20117;-58
2022/06/03 05:42:28;;;;;;;0.00;0.00;;;;;;;;;;5014058;28;20057;-58
2022/06/03 05:45:00;;;;;;;0.45;0.10;;;;;;;;;;5011060;28;20054;-58
2022/06/03 05:47:31;;;;;;;0.00;0.00;;;;;;;;;;5009365;28;20063;-58
2022/06/03 05:50:10;;;;;;;0.00;0.00;;;;;;;;;;5013270;28;20062;-57
2022/06/03 05:52:40;;;;;;;1.27;1.17;;;;;;;;;;5022969;28;20054;-57
2022/06/03 05:55:15;;;;;;;0.00;0.00;;;;;;;;;;5013151;28;20058;-57
2022/06/03 05:58:14;;;;;;;0.10;0.10;;;;;;;;;;5013838;28;20061;-57
2022/06/03 06:00:43;;;;;;;0.10;0.08;;;;;;;;;;5018240;28;20057;-57
2022/06/03 06:03:24;;;;;;;0.00;0.00;;;;;;;;;;5025086;28;20054;-57
2022/06/03 06:06:00;;;;;;;0.00;0.00;;;;;;;;;;5008711;28;20058;-57
2022/06/03 06:08:36;;;;;;;0.00;0.00;;;;;;;;;;5023780;28;20108;-57
2022/06/03 06:11:21;;;;;;;0.00;0.00;;;;;;;;;;5015375;28;20057;-56
2022/06/03 06:13:59;;;;;;;0.30;0.20;;;;;;;;;;5023464;28;20058;-58
2022/06/03 06:16:31;;;;;;;0.00;0.00;;;;;;;;;;5014579;28;20126;-58
2022/06/03 06:19:01;;;;;;;0.00;0.00;;;;;;;;;;5006009;28;20170;-58
2022/06/03 06:21:37;;;;;;;0.00;0.00;;;;;;;;;;5012650;28;21019;-58
2022/06/03 06:24:22;;;;;;;0.20;0.10;;;;;;;;;;5008015;28;20066;-58
2022/06/03 06:27:17;;;;;;;0.00;0.00;;;;;;;;;;5013896;28;20053;-58
2022/06/03 06:30:05;;;;;;;0.00;0.00;;;;;;;;;;5007998;28;20121;-58
2022/06/03 06:33:00;;;;;;;0.00;0.00;;;;;;;;;;5008222;28;20054;-58
2022/06/03 06:36:02;;;;;;;0.00;0.00;;;;;;;;;;5006547;28;20078;-58
2022/06/03 06:38:34;;;;;;;0.05;0.03;;;;;;;;;;5017857;28;21010;-57
2022/06/03 06:41:01;;;;;;;0.68;0.38;;;;;;;;;;5010166;28;20050;-57
2022/06/03 06:43:30;;;;;;;0.00;0.00;;;;;;;;;;5008691;28;20057;-51
2022/06/03 06:46:08;;;;;;;0.00;0.00;;;;;;;;;;5008379;28;20149;-51
2022/06/03 06:48:41;;;;;;;0.00;0.00;;;;;;;;;;5008698;28;20050;-54
2022/06/03 06:51:14;;;;;;;0.00;0.00;;;;;;;;;;5023249;28;20057;-53
2022/06/03 06:53:48;;;;;;;0.00;0.00;;;;;;;;;;5027622;28;20489;-51
2022/06/03 06:56:22;;;;;;;0.00;0.00;;;;;;;;;;5028286;28;20112;-58
2022/06/03 06:58:51;;;;;;;0.00;0.00;;;;;;;;;;5016109;28;20058;-58
2022/06/03 07:01:28;;;;;;;0.35;0.10;;;;;;;;;;5018404;28;20054;-58
2022/06/03 07:03:54;;;;;;;0.00;0.00;;;;;;;;;;5024768;28;20534;-58
2022/06/03 07:06:25;;;;;;;0.00;0.00;;;;;;;;;;5027962;28;20054;-59
2022/06/03 07:08:58;;;;;;;0.00;0.00;;;;;;;;;;5020738;28;20112;-58
2022/06/03 07:11:27;;;;;;;0.00;0.00;;;;;;;;;;5007489;28;20697;-58
2022/06/03 07:13:59;;;;;;;0.00;0.00;;;;;;;;;;5007790;28;20059;-59
2022/06/03 07:22:24;;;;;;;0.00;0.00;;;;;;;;;;5007626;28;20106;-58
2022/06/03 07:24:57;;;;;;;0.00;0.00;;;;;;;;;;5009140;28;20058;-58
2022/06/03 07:27:28;;;;;;;0.00;0.00;;;;;;;;;;5030333;28;20889;-58
2022/06/03 07:30:07;;;;;;;0.00;0.00;;;;;;;;;;5015104;28;20575;-53
2022/06/03 07:32:42;;;;;;;0.20;0.20;;;;;;;;;;5018516;28;20489;-52
2022/06/03 07:35:19;;;;;;;0.10;0.10;;;;;;;;;;5014825;28;20066;-53
2022/06/03 07:37:52;;;;;;;0.20;0.20;;;;;;;;;;5007321;28;20054;-50
2022/06/03 07:40:23;;;;;;;0.00;0.00;;;;;;;;;;5007978;28;20058;-53
2022/06/03 07:42:53;;;;;;;0.00;0.00;;;;;;;;;;5026385;28;20050;-54
2022/06/03 07:45:26;;;;;;;1.65;0.43;;;;;;;;;;5026781;28;20578;-53
2022/06/03 07:48:01;;;;;;;12.07;0.38;;;;;;;;;;5027376;28;20149;-54
2022/06/03 07:50:29;;;;;;;0.00;0.00;;;;;;;;;;5017967;28;20109;-54
2022/06/03 07:53:02;;;;;;;0.00;0.00;;;;;;;;;;5009638;28;20058;-53
2022/06/03 07:55:29;;;;;;;0.00;0.00;;;;;;;;;;5010300;28;20058;-52
2022/06/03 07:58:01;;;;;;;0.00;0.00;;;;;;;;;;5010957;28;20105;-53
2022/06/03 08:00:27;;;;;;;0.17;0.17;;;;;;;;;;5009892;28;20062;-50
2022/06/03 08:03:01;;;;;;;0.00;0.00;;;;;;;;;;5010364;28;20113;-53
2022/06/03 08:05:29;;;;;;;0.20;0.10;;;;;;;;;;5009814;28;20054;-54
2022/06/03 08:10:58;;;;;;;0.10;0.00;;;;;;;;;;5009520;28;20050;-51
2022/06/03 08:13:25;;;;;;;0.00;0.00;;;;;;;;;;5010286;28;20484;-51
2022/06/03 08:15:53;;;;;;;0.00;0.00;;;;;;;;;;5011312;28;20059;-54
2022/06/03 08:18:20;;;;;;;;;;;;;;;;;;5029870;28;20050;-55
2022/06/03 08:20:54;;;;;;;0.00;0.00;;;;;;;;;;5019581;28;44910;-54
2022/06/03 08:23:22;;;;;;;0.10;0.00;;;;;;;;;;5013115;28;20062;-54
2022/06/03 08:25:49;;;;;;;0.10;0.10;;;;;;;;;;5020037;28;20132;-54
2022/06/03 08:28:21;;;;;;;0.00;0.00;;;;;;;;;;5017218;28;20054;-54
2022/06/03 08:30:50;;;;;;;0.28;0.17;;;;;;;;;;5010189;28;20094;-54
2022/06/03 08:33:20;;;;;;;0.00;0.00;;;;;;;;;;5013206;28;20054;-54
2022/06/03 08:35:47;;;;;;;1.55;0.85;;;;;;;;;;5018170;28;20582;-54
2022/06/03 08:38:19;;;;;;;0.10;0.10;;;;;;;;;;5012990;28;20054;-53
2022/06/03 08:40:57;;;;;;;0.00;0.00;;;;;;;;;;5025567;28;20081;-54
2022/06/03 08:43:28;;;;;;;0.00;0.00;;;;;;;;;;5017755;28;20090;-54
2022/06/03 08:45:59;;;;;;;0.00;0.00;;;;;;;;;;5029432;28;20049;-55
2022/06/03 08:48:28;;;;;;;0.00;0.00;;;;;;;;;;5029988;28;20468;-55
2022/06/03 08:50:57;;;;;;;0.00;0.00;;;;;;;;;;5014195;28;20063;-53
2022/06/03 08:53:23;;;;;;;;;;;;;;;;;;5017998;28;20980;-53
2022/06/03 08:55:52;;;;;;;0.40;0.35;;;;;;;;;;5028710;28;46165;-51
2022/06/03 08:58:23;;;;;;;0.00;0.00;;;;;;;;;;5021000;28;20058;-54
2022/06/03 09:00:59;;;;;;;0.00;0.00;;;;;;;;;;5020490;28;20082;-53
2022/06/03 09:03:28;;;;;;;0.00;0.00;;;;;;;;;;5020228;28;20062;-51
2022/06/03 09:05:57;;;;;;;0.00;0.00;;;;;;;;;;5009289;28;20158;-53
2022/06/03 09:08:23;;;;;;;0.00;0.00;;;;;;;;;;5027287;28;20116;-54
2022/06/03 09:11:01;;;;;;;0.00;0.00;;;;;;;;;;5030212;28;20046;-54
2022/06/03 09:13:40;;;;;;;0.68;0.20;;;;;;;;;;5029450;28;20100;-55
2022/06/03 09:16:09;;;;;;;0.00;0.00;;;;;;;;;;5014778;28;20090;-52
2022/06/03 09:18:46;;;;;;;0.00;0.00;;;;;;;;;;5009778;28;20541;-57
2022/06/03 09:21:14;;;;;;;0.00;0.00;;;;;;;;;;5009674;28;20517;-60
2022/06/03 09:23:46;;;;;;;0.65;0.65;;;;;;;;;;5008501;28;20058;-60
2022/06/03 09:26:45;;;;;;;0.00;0.00;;;;;;;;;;5012066;28;20105;-59
2022/06/03 09:29:12;;;;;;;0.13;0.05;;;;;;;;;;5029162;28;20081;-59
2022/06/03 09:31:42;;;;;;;0.25;0.10;;;;;;;;;;5022966;28;20132;-59
2022/06/03 09:34:10;;;;;;;0.22;0.17;;;;;;;;;;5024627;28;20504;-59
2022/06/03 09:36:37;;;;;;;0.10;0.10;;;;;;;;;;5009634;28;20116;-59
2022/06/03 09:39:08;;;;;;;0.10;0.00;;;;;;;;;;5009035;28;20085;-59
2022/06/03 09:41:36;;;;;;;0.00;0.00;;;;;;;;;;5009332;28;20059;-59
2022/06/03 09:44:03;;;;;;;;;;;;;;;;;;5009108;28;20059;-59
2022/06/03 09:46:31;;;;;;;0.00;0.00;;;;;;;;;;5008439;28;45525;-59
2022/06/03 09:48:58;;;;;;;0.32;0.15;;;;;;;;;;5012481;28;20148;-59
2022/06/03 09:51:55;;;;;;;0.55;0.45;;;;;;;;;;5018602;28;20058;-59
2022/06/03 09:54:13;;;;;;;0.00;0.00;;;;;;;;;;5008507;28;20513;-59
2022/06/03 09:56:41;;;;;;;0.00;0.00;;;;;;;;;;5008592;28;20113;-59
2022/06/03 09:59:09;;;;;;;0.00;0.00;;;;;;;;;;5009418;28;20089;-59
2022/06/03 10:01:36;;;;;;;0.00;0.00;;;;;;;;;;5009890;28;20058;-59
2022/06/03 10:04:06;;;;;;;0.00;0.00;;;;;;;;;;5008856;28;20069;-59
2022/06/03 10:06:50;;;;;;;0.03;0.00;;;;;;;;;;5014920;28;20152;-59
2022/06/03 10:17:37;;;;;;;0.30;0.17;;;;;;;;;;5009197;28;20062;-59
2022/06/03 10:20:08;;;;;;;;;;;;;;;;;;5008727;28;20093;-59
2022/06/03 10:22:34;;;;;;;0.22;0.00;;;;;;;;;;5022713;28;44647;-59
2022/06/03 10:25:01;;;;;;;0.00;0.00;;;;;;;;;;5025250;28;20058;-59
2022/06/03 10:27:27;;;;;;;0.10;0.10;;;;;;;;;;5008227;28;20108;-59
2022/06/03 10:29:57;;;;;;;0.00;0.00;;;;;;;;;;5008118;28;20062;-59
2022/06/03 10:32:23;;;;;;;0.00;0.00;;;;;;;;;;5008085;28;20109;-59
2022/06/03 10:34:50;;;;;;;0.00;0.00;;;;;;;;;;5008880;28;20051;-59
2022/06/03 10:37:21;;;;;;;0.00;0.00;;;;;;;;;;5011625;28;20120;-59
2022/06/03 10:39:48;;;;;;;0.00;0.00;;;;;;;;;;5025277;28;20909;-59
2022/06/03 10:42:15;;;;;;;0.00;0.00;;;;;;;;;;5026672;28;20563;-59
2022/06/03 10:44:43;;;;;;;0.10;0.10;;;;;;;;;;5020782;28;20054;-59
2022/06/03 10:47:17;;;;;;;0.00;0.00;;;;;;;;;;5017062;28;20579;-59
2022/06/03 10:49:43;;;;;;;;;;;;;;;;;;5027418;28;20109;-58
2022/06/03 11:03:49;;;;;;;0.00;0.00;;;;;;;;;;5044856;28;20042;-59
2022/06/03 11:06:18;;;;;;;0.17;0.15;;;;;;;;;;5030329;28;20054;-59
2022/06/03 11:08:52;;;;;;;0.00;0.00;;;;;;;;;;5014927;28;20058;-58
2022/06/03 11:11:38;;;;;;;0.13;0.13;;;;;;;;;;5007466;28;20109;-59
2022/06/03 11:14:23;;;;;;;0.05;0.00;;;;;;;;;;5008391;28;20501;-59
2022/06/03 11:17:04;;;;;;;0.00;0.00;;;;;;;;;;5007208;28;20054;-59
2022/06/03 11:19:32;;;;;;;0.00;0.00;;;;;;;;;;5013604;28;20092;-58
2022/06/03 11:22:22;;;;;;;0.60;0.55;;;;;;;;;;5027117;28;20147;-58
2022/06/03 11:25:03;;;;;;;0.00;0.00;;;;;;;;;;5006601;28;20144;-58
2022/06/03 11:27:34;;;;;;;0.00;0.00;;;;;;;;;;5008700;28;20095;-59
2022/06/03 11:30:03;;;;;;;0.10;0.10;;;;;;;;;;5012858;28;20058;-59
2022/06/03 11:32:30;;;;;;;0.00;0.00;;;;;;;;;;5017151;28;20064;-58
2022/06/03 11:34:58;;;;;;;0.00;0.00;;;;;;;;;;5030558;28;20108;-59
2022/06/03 11:37:27;;;;;;;0.00;0.00;;;;;;;;;;5031149;28;20050;-58
2022/06/03 11:40:05;;;;;;;0.08;0.08;;;;;;;;;;5030476;28;20104;-59
2022/06/03 11:42:31;;;;;;;;;;;;;;;;;;5022889;28;20149;-58
2022/06/03 11:45:04;;;;;;;0.00;0.00;;;;;;;;;;5010192;28;45048;-59
2022/06/03 11:47:37;;;;;;;0.00;0.00;;;;;;;;;;5011617;28;20579;-59
2022/06/03 11:50:05;;;;;;;0.10;0.10;;;;;;;;;;5029496;28;20543;-59
2022/06/03 11:52:32;;;;;;;0.00;0.00;;;;;;;;;;5029617;28;20501;-58
2022/06/03 11:54:58;;;;;;;0.00;0.00;;;;;;;;;;5030342;28;20120;-59
2022/06/03 11:57:26;;;;;;;0.13;0.13;;;;;;;;;;5028806;28;20082;-59
2022/06/03 12:00:02;;;;;;;0.32;0.32;;;;;;;;;;5010247;28;20086;-59
2022/06/03 12:02:34;;;;;;;0.00;0.00;;;;;;;;;;5010123;28;20161;-59
2022/06/03 12:05:00;;;;;;;0.30;0.10;;;;;;;;;;5015351;28;20077;-59
2022/06/03 12:07:39;;;;;;;0.00;0.00;;;;;;;;;;5029947;28;20109;-59
2022/06/03 12:10:15;;;;;;;0.00;0.00;;;;;;;;;;5030214;28;20072;-59
2022/06/03 12:15:35;;;;;;;0.00;0.00;;;;;;;;;;5029978;28;20476;-59
2022/06/03 12:18:14;;;;;;;0.00;0.00;;;;;;;;;;5030448;28;20164;-59
2022/06/03 12:20:44;;;;;;;0.00;0.00;;;;;;;;;;5030086;28;20826;-60
2022/06/03 12:23:13;;;;;;;0.00;0.00;;;;;;;;;;5028810;28;20050;-59
2022/06/03 12:25:40;;;;;;;0.17;0.00;;;;;;;;;;5030127;28;20058;-59
2022/06/03 12:28:20;;;;;;;0.00;0.00;;;;;;;;;;5030395;28;20061;-59
2022/06/03 12:30:51;;;;;;;0.08;0.08;;;;;;;;;;5010258;28;20058;-59
2022/06/03 12:33:36;;;;;;;0.10;0.08;;;;;;;;;;5010184;28;20489;-59
2022/06/03 12:36:07;;;;;;;0.00;0.00;;;;;;;;;;5009857;28;20058;-59
2022/06/03 12:38:40;;;;;;;0.00;0.00;;;;;;;;;;5010346;28;20057;-59
2022/06/03 12:41:07;;;;;;;0.00;0.00;;;;;;;;;;5010217;28;20556;-59
2022/06/03 12:43:46;;;;;;;0.00;0.00;;;;;;;;;;5009662;28;20960;-59
2022/06/03 12:46:31;;;;;;;0.00;0.00;;;;;;;;;;5009785;28;20057;-59
2022/06/03 12:48:57;;;;;;;0.00;0.00;;;;;;;;;;5008702;28;20149;-59
2022/06/03 12:51:28;;;;;;;0.00;0.00;;;;;;;;;;5027070;28;20088;-59
2022/06/03 12:54:05;;;;;;;0.00;0.00;;;;;;;;;;5049501;28;20951;-59
2022/06/03 12:56:47;;;;;;;0.10;0.10;;;;;;;;;;5030822;28;20058;-59
2022/06/03 12:59:26;;;;;;;0.00;0.00;;;;;;;;;;5009686;28;20081;-59
2022/06/03 13:02:03;;;;;;;0.10;0.10;;;;;;;;;;5009543;28;20509;-59
2022/06/03 13:04:48;;;;;;;0.00;0.00;;;;;;;;;;5010127;28;20105;-59
2022/06/03 13:07:27;;;;;;;0.25;0.22;;;;;;;;;;5009649;28;20050;-59
2022/06/03 13:09:58;;;;;;;0.20;0.20;;;;;;;;;;5009509;28;20179;-59
2022/06/03 13:12:28;;;;;;;0.10;0.10;;;;;;;;;;5009738;28;20136;-59
2022/06/03 13:14:55;;;;;;;0.00;0.00;;;;;;;;;;5009568;28;20058;-59
2022/06/03 13:17:40;;;;;;;0.00;0.00;;;;;;;;;;5009600;28;20058;-59
2022/06/03 13:20:07;;;;;;;0.00;0.00;;;;;;;;;;5016534;28;20489;-59
2022/06/03 13:22:46;;;;;;;0.03;0.03;;;;;;;;;;5009438;28;20046;-59
2022/06/03 13:25:15;;;;;;;0.00;0.00;;;;;;;;;;5009164;28;20062;-59
2022/06/03 13:28:01;;;;;;;0.10;0.10;;;;;;;;;;5009851;28;20054;-59
2022/06/03 13:30:35;;;;;;;0.08;0.08;;;;;;;;;;5019929;28;20077;-59
2022/06/03 13:33:15;;;;;;;0.05;0.05;;;;;;;;;;5013249;28;20498;-59
2022/06/03 13:35:59;;;;;;;0.10;0.10;;;;;;;;;;5008847;28;20055;-59
2022/06/03 13:38:37;;;;;;;0.10;0.10;;;;;;;;;;5009415;28;20136;-59
2022/06/03 13:44:06;;;;;;;0.10;0.10;;;;;;;;;;5022588;28;20054;-56
2022/06/03 13:46:33;;;;;;;0.00;0.00;;;;;;;;;;5010945;28;20094;-55
2022/06/03 13:49:01;;;;;;;0.00;0.00;;;;;;;;;;5027708;28;20057;-55
2022/06/03 13:51:31;;;;;;;0.08;0.08;;;;;;;;;;5014600;28;20109;-56
2022/06/03 13:54:04;;;;;;;0.10;0.10;;;;;;;;;;5008889;28;20058;-55
2022/06/03 13:56:31;;;;;;;0.00;0.00;;;;;;;;;;5009283;28;20513;-54
2022/06/03 13:58:59;;;;;;;0.03;0.03;;;;;;;;;;5008614;28;20507;-53
2022/06/03 14:01:31;;;;;;;0.10;0.10;;;;;;;;;;5008842;28;20054;-55
2022/06/03 14:04:04;;;;;;;0.00;0.00;;;;;;;;;;5008311;28;20089;-59
2022/06/03 14:06:33;;;;;;;0.00;0.00;;;;;;;;;;5011275;28;20062;-59
2022/06/03 14:09:21;;;;;;;0.10;0.10;;;;;;;;;;5013872;28;20117;-60
2022/06/03 14:11:48;;;;;;;3.30;1.08;;;;;;;;;;5018868;28;20058;-59
2022/06/03 14:14:34;;;;;;;0.00;0.00;;;;;;;;;;5019464;28;20042;-60
2022/06/03 14:17:10;;;;;;;0.00;0.00;;;;;;;;;;5028298;28;20116;-60
2022/06/03 14:19:44;;;;;;;0.00;0.00;;;;;;;;;;5028708;28;20077;-60
2022/06/03 14:22:43;;;;;;;0.00;0.00;;;;;;;;;;5027861;28;20054;-60
2022/06/03 14:25:15;;;;;;;0.10;0.10;;;;;;;;;;5008670;28;20101;-60
2022/06/03 14:27:49;;;;;;;0.25;0.10;;;;;;;;;;5007806;28;20113;-60
2022/06/03 14:30:20;;;;;;;14.55;0.95;;;;;;;;;;5009005;28;20058;-60
2022/06/03 14:32:50;;;;;;;0.00;0.00;;;;;;;;;;5007866;28;20058;-60
2022/06/03 14:35:19;;;;;;;0.20;0.20;;;;;;;;;;5045624;28;20108;-60
2022/06/03 14:37:49;;;;;;;0.20;0.10;;;;;;;;;;5032240;28;20497;-60
2022/06/03 14:40:20;;;;;;;0.00;0.00;;;;;;;;;;5014489;28;20054;-60
2022/06/03 14:42:49;;;;;;;0.00;0.00;;;;;;;;;;5007884;28;20062;-60
2022/06/03 14:45:22;;;;;;;0.13;0.13;;;;;;;;;;5008092;28;20108;-60
2022/06/03 14:47:51;;;;;;;0.40;0.30;;;;;;;;;;5007740;28;20054;-60
2022/06/03 14:50:24;;;;;;;0.00;0.00;;;;;;;;;;5007224;28;20320;-60
2022/06/03 14:53:01;;;;;;;0.10;0.10;;;;;;;;;;5007703;28;21092;-59
2022/06/03 14:55:30;;;;;;;0.10;0.10;;;;;;;;;;5008314;28;20054;-60
2022/06/03 14:57:59;;;;;;;0.10;0.10;;;;;;;;;;5008025;28;20537;-59
2022/06/03 15:00:42;;;;;;;0.10;0.10;;;;;;;;;;5021912;28;20127;-59
2022/06/03 15:03:29;;;;;;;0.32;0.20;;;;;;;;;;5017582;28;20539;-60
2022/06/03 15:05:57;;;;;;;0.00;0.00;;;;;;;;;;5011269;28;20105;-60
2022/06/03 15:08:29;;;;;;;0.10;0.10;;;;;;;;;;5011095;28;20109;-60
2022/06/03 15:11:08;;;;;;;0.00;0.00;;;;;;;;;;5018391;28;20061;-60
2022/06/03 15:13:35;;;;;;;0.05;0.05;;;;;;;;;;5013176;28;20106;-60
2022/06/03 15:16:05;;;;;;;0.00;0.00;;;;;;;;;;5011049;28;20113;-60
2022/06/03 15:18:33;;;;;;;0.00;0.00;;;;;;;;;;5011408;28;20050;-60
2022/06/03 15:21:08;;;;;;;0.10;0.10;;;;;;;;;;5016558;28;20548;-60
2022/06/03 15:23:35;;;;;;;0.28;0.15;;;;;;;;;;5024358;28;20062;-59
2022/06/03 15:26:03;;;;;;;0.00;0.00;;;;;;;;;;5014448;28;20086;-59
2022/06/03 15:28:30;;;;;;;0.00;0.00;;;;;;;;;;5011326;28;20468;-59
2022/06/03 15:31:00;;;;;;;0.05;0.05;;;;;;;;;;5015600;28;20112;-59
2022/06/03 15:33:37;;;;;;;0.00;0.00;;;;;;;;;;5027566;28;20120;-59
2022/06/03 15:36:11;;;;;;;0.10;0.10;;;;;;;;;;5012134;28;20249;-59
2022/06/03 15:38:40;;;;;;;0.10;0.10;;;;;;;;;;5020506;28;20225;-59
2022/06/03 15:41:08;;;;;;;0.00;0.00;;;;;;;;;;5012623;28;20055;-60
2022/06/03 15:43:45;;;;;;;0.10;0.10;;;;;;;;;;5026923;28;20057;-60
2022/06/03 15:46:26;;;;;;;0.00;0.00;;;;;;;;;;5021082;28;20058;-60
2022/06/03 15:48:54;;;;;;;0.05;0.05;;;;;;;;;;5022029;28;20456;-60
2022/06/03 15:51:21;;;;;;;;;;;;;;;;;;5011568;28;20448;-60
2022/06/03 15:53:50;;;;;;;0.00;0.00;;;;;;;;;;5023036;28;44822;-59
2022/06/03 15:56:27;;;;;;;0.10;0.10;;;;;;;;;;5028767;28;20116;-60
2022/06/03 15:59:12;;;;;;;0.08;0.08;;;;;;;;;;5015174;28;20089;-60
2022/06/03 16:01:38;;;;;;;0.00;0.00;;;;;;;;;;5020754;28;20065;-60
2022/06/03 16:04:08;;;;;;;3.75;1.67;;;;;;;;;;5034953;28;20085;-60
2022/06/03 16:06:38;;;;;;;0.03;0.03;;;;;;;;;;5011885;28;20056;-60
2022/06/03 16:09:33;;;;;;;0.00;0.00;;;;;;;;;;5009845;28;20619;-60